Flight Track Log - Related Links

Times and Time Zones

All times are in EDT time to prevent confusion due to time zone crossing. See the UAL6129 flight status page for this flight to view local times or setup timezone preferences in your user account.

Time Position Orientation Groundspeed Altitude Reporting Facility
EDT Latitude Longitude Course Direction KTS MPH feet Rate Location/Type
Fri 10:11:56 PM 41.9667 -87.9333 294° West 167 192 1,900  Level Chicago TRACON
Fri 10:12:50 PM 41.9833 -87.9833 294° West 224 258 3,900 2,394 Climbing Chicago TRACON
Fri 10:15:09 PM 42.1344 -87.9953 357° North 271 312 9,600 2,550 Climbing Chicago Center
Fri 10:16:10 PM 42.2253 -88.0006 358° North 273 314 12,400 1,770 Climbing Chicago Center
Fri 10:17:11 PM 42.3161 -87.9972 North 322 371 13,200 1,317 Climbing Chicago Center
Fri 10:18:13 PM 42.4106 -87.9986 359° North 342 394 15,100 1,610 Climbing Chicago Center
Fri 10:19:14 PM 42.5089 -87.9967 North 352 405 16,500 1,328 Climbing Chicago Center
Fri 10:20:15 PM 42.6089 -87.9944 North 358 412 17,800 1,415 Climbing Chicago Center
Fri 10:21:17 PM 42.6939 -88.0636 329° Northwest 354 407 19,400 1,073 Climbing Chicago Center
Fri 10:22:18 PM 42.7819 -88.1311 331° Northwest 361 415 20,000 295 Climbing Chicago Center
Fri 10:23:19 PM 42.8914 -88.2131 331° Northwest 381 438 20,000  Level Chicago Center
Fri 10:24:21 PM 42.9867 -88.2819 332° Northwest 386 444 20,000  Level Chicago Center
Fri 10:25:22 PM 43.0803 -88.3539 331° Northwest 385 443 20,000  Level Chicago Center
Fri 10:26:24 PM 43.1747 -88.4236 332° Northwest 384 442 20,000  Level Chicago Center
Fri 10:27:25 PM 43.2683 -88.4944 331° Northwest 382 440 20,000  Level Chicago Center
Fri 10:28:26 PM 43.3653 -88.5683 331° Northwest 389 448 20,000  Level Chicago Center
Fri 10:29:28 PM 43.4642 -88.6433 331° Northwest 394 453 20,000 -341 Level Chicago Center
Fri 10:30:29 PM 43.5608 -88.7167 331° Northwest 392 451 19,300 -1,041 Descending Chicago Center
Fri 10:31:29 PM 43.6533 -88.7875 331° Northwest 383 441 17,900 -1,339 Descending Minneapolis Center
Fri 10:32:30 PM 43.7447 -88.8575 331° Northwest 378 435 16,600 -1,463 Descending Minneapolis Center
Fri 10:33:32 PM 43.8347 -88.9275 331° Northwest 373 429 14,900 -1,220 Descending Minneapolis Center
Fri 10:34:33 PM 43.9231 -88.9953 331° Northwest 365 420 14,100 -443 Descending Minneapolis Center
Fri 10:35:34 PM 43.9958 -89.0444 334° Northwest 355 409 14,000 -44 Descending Minneapolis Center
Fri 10:36:48 PM 44.1158 -89.1136 338° Northwest 363 418 14,000  Level Minneapolis Center
Fri 10:37:49 PM 44.2283 -89.1814 337° Northwest 368 423 14,000 -146 Level Minneapolis Center
Fri 10:38:51 PM 44.3261 -89.2397 337° Northwest 368 423 13,700 -1,122 Descending Minneapolis Center
Fri 10:39:52 PM 44.4156 -89.2931 337° Northwest 338 389 11,700 -1,820 Descending Minneapolis Center
Fri 10:40:53 PM 44.4878 -89.3364 337° Northwest 298 343 10,000 -1,756 Descending Minneapolis Center
Fri 10:41:55 PM 44.5569 -89.3786 336° Northwest 262 302 8,100 -2,049 Descending Minneapolis Center
Fri 10:42:56 PM 44.6233 -89.4169 338° Northwest 247 284 5,800 -2,016 Descending Minneapolis Center
Fri 10:43:57 PM 44.6822 -89.4528 337° Northwest 240 276 4,000 -1,328 Descending Minneapolis Center
Fri 10:44:58 PM 44.7425 -89.4903 336° Northwest 230 265 3,100 -488 Descending Minneapolis Center
Fri 10:46:00 PM 44.7903 -89.5239 333° Northwest 193 222 3,000 -341 Descending Minneapolis Center
Fri 10:47:01 PM 44.7978 -89.5747 282° West 134 154 2,400 -393 Descending Minneapolis Center
Fri 10:48:02 PM 44.7903 -89.6178 256° West 130 150 2,200 -197 Descending Minneapolis Center

Login

Don't have an account? Register now (free) for customized features, flight alerts, and more!